Malad City, ID

02:15 AM MDT am 28. Juli 2014 (GMT -0600)
Middle of city block (KIDMALAD3) Höhe 4662 ft | 42.20 °N, 112.26 °W | Change Station

Current weather conditions updated 2 seconds ago

Clear
Heiter
74.4 °F
gefühlte 76 °F
N
2.0
Wind Wechselnd Wind aus Nord-Nordost
Gusts 10.0 mph

Heute wird es voraussichtlich kälter als gestern.

Heute
Max. -- | schwach -- °F
--% Regenrisiko
Gestern
Max. -- | schwach -- °F
Precip. -- inch
6:18 AM 8:52 PM
Neumond, 2% visible
Druck 29.96 inch
Sichtweite 10.0 Meilen
Wolken Heiter
Hitzeindex 76 °F
Taupunkt 32 °F
Feuchtigkeit 21%
Regen 0.00 inch
Schneehöhe Nicht verfügbar..
UV 0 von 12
Pollen 5.70 von 12
PM2.5 Gut
Flu Activity Nicht verfügbar..
METAR KLGU 280751Z AUTO VRB03KT 10SM CLR 21/08 A3015 RMK AO2 SLP146 T02060083

More Conditions Fewer Conditions

Druck 29.96 inch
Sichtweite 10.0 Meilen
Wolken Heiter
Hitzeindex 76 °F
Taupunkt 32 °F
Feuchtigkeit 21%
Regen 0.00 inch
Schneehöhe Nicht verfügbar..
UV 0 von 12
Pollen 5.70 von 12
PM2.5 Gut
Flu Activity Nicht verfügbar..
METAR KLGU 280751Z AUTO VRB03KT 10SM CLR 21/08 A3015 RMK AO2 SLP146 T02060083

More Conditions Fewer Conditions

10-Day Weather Forecast

Almanac

Astronomie

Jul. 28, 2014 Aufgang Untergang
Genaue Zeit 06:18 MDT 20:52 MDT
Bürgerliche Dämmerung 05:46 MDT 21:24 MDT
Nautische Dämmerung 05:05 MDT 22:04 MDT
Astronomische Dämmerung 04:20 MDT 22:49 MDT
Mond 08:06 MDT 21:32 MDT
Länge des sichtbaren Lichts 15h 38m
Tageslänge
14h 34m
Tomorrow will be 2m 3s shorter.
Neumond, 2% of the Moon is Illuminated
Heute
Neumond
Aug 3
Erstes Viertel
Aug 10
Vollmond
Aug 17
Letztes Viertel
Aug 25
Neu

Heutige Rekorde

State Highs State Lows

Community

WunderPhotos

Upload Photos

1,738,293 Fotos hochgeladen!

Nearby

Luftqualität

  Luftqualität LQ Index Schadstoff
Gestern Gut
PM2.5
Aktuell Gut
PM2.5
Montag Gut
PM2.5

Schneehöhe

Station Depth Höhe
Oxford Spring 0 in 6740 ft
Wildhorse Divide 0 in 6490 ft
Somsen Ranch 0 in 6800 ft
Sheep Mountain 0 in 6570 ft
Magic Mountain 0 in 6880 ft

Erdbebenaktivität

Stadt Distance Mag. Time & Date
No recent earthquake activity has been reported nearby.
Minimum magnitude displayed is 2.5.

küstennahe Wassertemperaturen

Ort Temperatur
Kein Stationsbericht

Wetterstationen in der Umgebung

Stationsstandort Temp. Hitzeindex Taupunkt Feuchtigkeit Wind Precip. Höhe Aktualisiert Art
Middle of city block, Malad City, ID 74.4 °F 76 °F 32 °F 21% Nord-Nordost  mit  2.0 mph 0.00 inch / hr 4662 ft 2:15 AM MDT Echtzeit
MesoWest Blue Creek , Snowville, UT 76 °F 76 °F 25 °F 15% West-Südwest  mit  4 mph 0.00 inch / hr 5169 ft 1:45 AM MDT MADIS
MesoWest BLUE CREEK , Snowville, UT 69 °F - 25 °F 19% Ost  mit  3 mph 0.00 inch / hr 5188 ft 1:00 AM MDT MADIS
Qabsolute, Arimo, ID 71.6 °F 75 °F 32 °F 23% Nord-Nordwest  mit  3.0 mph 0.00 inch / hr 4944 ft 2:06 AM MDT Normal
RAWS BULL CANYON ID, Holbrook, ID 70 °F - 29 °F 22% West  mit  1 mph 0.00 inch / hr 6417 ft 1:21 AM MDT MADIS

Show More Stations Show Fewer Stations